< Typhoon 200122 2001 Season Typhoon 200124 >
Typhoon 200123 (LINGLING)
General InformationTrack Information on Google MapsDetailed Wind InformationList of All Images || NewsDisaster Info.ResourceGoogle EarthGE AnimationAtom FeedGeoJSON
Detalied Best Track (Time Zone = UTC)
Year Month Day Hour Lat. Long. Pressure (hPa) Wind (kt) Class Image Chart
2001 11 6 00 10.2 128.0 1004 0 2 Image Chart
2001 11 6 06 10.4 126.9 1002 0 2 Image Chart
2001 11 6 12 10.4 126.0 1002 0 2 Image Chart
2001 11 6 18 10.4 125.3 996 35 3 Image Chart
2001 11 7 00 10.5 124.4 996 35 3 Image Chart
2001 11 7 06 10.7 123.9 994 35 3 Image Chart
2001 11 7 12 10.9 123.3 996 35 3 Image Chart
2001 11 7 18 11.2 122.7 994 35 3 Image Chart
2001 11 8 00 11.5 122.0 992 40 3 Image Chart
2001 11 8 06 11.9 121.4 990 45 3 Image Chart
2001 11 8 12 12.3 120.7 990 45 3 Image Chart
2001 11 8 18 12.5 119.7 980 55 4 Image Chart
2001 11 9 00 12.7 118.7 980 55 4 Image Chart
2001 11 9 06 13.0 117.9 975 60 4 Image Chart
2001 11 9 12 13.2 117.0 970 65 5 Image Chart
2001 11 9 18 13.4 116.1 965 70 5 Image Chart
2001 11 10 00 13.4 115.3 955 75 5 Image Chart
2001 11 10 06 13.5 114.7 950 80 5 Image Chart
2001 11 10 12 13.5 114.1 945 85 5 Image Chart
2001 11 10 18 13.6 113.3 945 85 5 Image Chart
2001 11 11 00 13.5 112.5 940 85 5 Image Chart
2001 11 11 06 13.5 111.7 940 85 5 Image Chart
2001 11 11 12 13.5 110.5 955 70 5 Image Chart
2001 11 11 18 13.5 109.5 985 50 4 Image Chart
2001 11 12 00 13.5 108.3 998 0 2 Image Chart
2001 11 12 06 13.5 107.3 1000 0 2 Image Chart
2001 11 12 12 13.5 106.3 1004 0 2 Image Chart
Japan Meteorological Agency Best Track Data | Correction Date : 2002-01-24
< Typhoon 200122 2001 Season Typhoon 200124 >

Help